CJC weather

El Loa Airport
Calama, Antofagasta Region, Chile

Public forecast

Using degrees Celsius for public forecast. Weather courtesy of forecast.io.

METAR (pilot weather report)

Retrieved 2019/05/24 02:00 UTC (28 minutes ago):

SCCF 240200Z 09017KT CAVOK 04/M22 Q1028

TAF (pilot weather forecast)

Retrieved 2019/05/24 00:00 UTC (2 hours ago):

TAF SCCF 232256Z 2400/2424 23010KT CAVOK TNM00/2410Z TX23/2419Z BECMG 2401/2403 11015KT BECMG 2415/2416 26004KT BECMG 2417/2419 27015KT